Hillside Manor, New York
Current Conditions -  °F | °C
As of 4:51 PM on Friday 31 Oct 2014 (Local Time) from KJFK Reporting Station
Overcast Overcast  
Wind Chill: 55°   Ceiling: 5000
Heat Index: 55°   Visibility: 10mi
Dew Point: 39°   Wind: 10mph
Humidity: 55%   Direction: 50°NE
Pressure: 29.91"   Gusts: NA
Location:  40.7459°N, 73.6798°W
Report Text: KJFK 312051Z 05009KT 10SM FEW025 OVC050 13/04 A2991 RMK AO2 SLP127 T01280039 55008
Loading
Personal Weather Stations






























Interactive Weather Map
Tropical Storm Tracking
New forecast layout! Learn more

10-Day Weather Forecast

Advertisements
Track Severe Weather on mobile